createdAt,value
2023-03-27T00:01:25.239Z,9.10
2023-03-27T00:03:53.447Z,9.30
2023-03-27T00:06:20.921Z,9.10
2023-03-27T00:08:48.778Z,9.10
2023-03-27T00:11:16.860Z,9.40
2023-03-27T00:13:49.988Z,9.20
2023-03-27T00:16:22.224Z,9.30
2023-03-27T00:18:49.385Z,9.20
2023-03-27T00:21:16.512Z,9.10
2023-03-27T00:23:43.606Z,9.10
2023-03-27T00:26:12.018Z,9.30
2023-03-27T00:28:39.407Z,9.00
2023-03-27T00:31:09.757Z,8.90
2023-03-27T00:33:37.544Z,8.50
2023-03-27T00:36:04.841Z,8.70
2023-03-27T00:38:32.246Z,8.80
2023-03-27T00:40:59.829Z,8.90
2023-03-27T00:43:28.482Z,9.30
2023-03-27T00:45:57.251Z,9.30
2023-03-27T00:48:24.868Z,8.70
2023-03-27T00:50:51.970Z,8.80
2023-03-27T00:53:23.649Z,8.90
2023-03-27T00:55:51.890Z,8.70
2023-03-27T00:58:20.913Z,9.00
2023-03-27T01:00:51.567Z,8.60
2023-03-27T01:03:18.741Z,8.90
2023-03-27T01:05:45.911Z,8.80
2023-03-27T01:08:13.477Z,8.60
2023-03-27T01:10:43.657Z,8.80
2023-03-27T01:13:15.532Z,8.60
2023-03-27T01:15:45.289Z,9.00
2023-03-27T01:18:31.539Z,8.90
2023-03-27T01:20:59.665Z,8.80
2023-03-27T01:23:59.354Z,8.60
2023-03-27T01:26:56.022Z,8.50
2023-03-27T01:29:41.709Z,8.50
2023-03-27T01:32:24.201Z,8.70
2023-03-27T01:35:01.075Z,8.70
2023-03-27T01:37:29.570Z,8.50
2023-03-27T01:40:01.873Z,8.80
2023-03-27T01:42:28.968Z,8.60
2023-03-27T01:45:13.365Z,8.70
2023-03-27T01:47:55.738Z,8.60
2023-03-27T01:50:28.191Z,8.30
2023-03-27T01:52:56.717Z,8.90
2023-03-27T01:55:24.962Z,8.90
2023-03-27T01:57:53.776Z,8.60
2023-03-27T02:00:22.334Z,8.70
2023-03-27T02:02:54.305Z,8.30
2023-03-27T02:05:32.648Z,8.50
2023-03-27T02:08:01.427Z,8.50
2023-03-27T02:10:30.341Z,8.30
2023-03-27T02:13:02.883Z,8.50
2023-03-27T02:15:33.916Z,8.10
2023-03-27T02:18:09.909Z,8.10
2023-03-27T02:20:37.540Z,8.60
2023-03-27T02:23:04.916Z,8.20
2023-03-27T02:25:33.232Z,8.20
2023-03-27T02:28:16.710Z,8.10
2023-03-27T02:30:46.821Z,8.10
2023-03-27T02:33:38.619Z,8.20
2023-03-27T02:36:22.182Z,7.70
2023-03-27T02:38:49.531Z,7.60
2023-03-27T02:41:21.081Z,7.70
2023-03-27T02:44:00.843Z,7.70
2023-03-27T02:46:31.050Z,7.60
2023-03-27T02:48:58.598Z,7.80
2023-03-27T02:51:27.585Z,7.50
2023-03-27T02:53:59.587Z,7.80
2023-03-27T02:56:27.420Z,7.90
2023-03-27T02:58:57.294Z,7.70
2023-03-27T03:01:26.620Z,7.80
2023-03-27T03:03:55.361Z,7.50
2023-03-27T03:06:29.516Z,7.80
2023-03-27T03:09:06.026Z,7.40
2023-03-27T03:11:33.572Z,7.40
2023-03-27T03:14:00.654Z,7.60
2023-03-27T03:16:28.583Z,7.20
2023-03-27T03:18:56.258Z,7.40
2023-03-27T03:21:23.378Z,7.00
2023-03-27T03:23:58.042Z,7.00
2023-03-27T03:26:27.009Z,7.30
2023-03-27T03:29:01.092Z,7.20
2023-03-27T03:31:44.297Z,7.60
2023-03-27T03:34:12.574Z,7.50
2023-03-27T03:36:41.958Z,7.60
2023-03-27T03:39:09.475Z,7.20
2023-03-27T03:41:36.576Z,7.20
2023-03-27T03:44:03.677Z,7.20
2023-03-27T03:46:31.161Z,6.90
2023-03-27T03:48:59.344Z,7.00
2023-03-27T03:51:26.978Z,6.90
2023-03-27T03:53:54.194Z,6.80
2023-03-27T03:56:21.375Z,6.80
2023-03-27T03:58:48.477Z,6.70
2023-03-27T04:01:15.617Z,6.80
2023-03-27T04:03:43.891Z,6.70
2023-03-27T04:06:11.222Z,6.90
2023-03-27T04:08:38.339Z,6.80
2023-03-27T04:11:05.595Z,6.80
2023-03-27T04:13:32.733Z,6.70
2023-03-27T04:16:01.690Z,6.80
2023-03-27T04:18:30.580Z,6.80
2023-03-27T04:20:58.490Z,6.70
2023-03-27T04:23:33.665Z,6.40
2023-03-27T04:26:01.881Z,6.30
2023-03-27T04:28:34.631Z,6.60
2023-03-27T04:31:06.223Z,6.60
2023-03-27T04:33:34.257Z,6.60
2023-03-27T04:36:06.598Z,6.50
2023-03-27T04:38:39.174Z,6.50
2023-03-27T04:41:06.790Z,6.50
2023-03-27T04:43:36.797Z,6.40
2023-03-27T04:46:04.572Z,6.30
2023-03-27T04:48:31.665Z,6.00
2023-03-27T04:50:59.067Z,6.30
2023-03-27T04:53:30.138Z,6.20
2023-03-27T04:55:57.537Z,6.30
2023-03-27T04:58:26.097Z,6.60
2023-03-27T05:00:55.834Z,6.30
2023-03-27T05:03:24.041Z,6.30
2023-03-27T05:05:51.206Z,6.40
2023-03-27T05:08:18.502Z,6.20
2023-03-27T05:10:46.429Z,6.30
2023-03-27T05:13:13.577Z,6.40
2023-03-27T05:15:40.867Z,6.30
2023-03-27T05:18:08.905Z,6.50
2023-03-27T05:20:36.556Z,6.40
2023-03-27T05:23:03.905Z,6.50
2023-03-27T05:25:31.445Z,6.70
2023-03-27T05:27:58.729Z,6.40
2023-03-27T05:30:26.848Z,6.30
2023-03-27T05:32:54.354Z,6.30
2023-03-27T05:35:22.490Z,6.20
2023-03-27T05:37:50.592Z,6.40
2023-03-27T05:40:20.968Z,6.40
2023-03-27T05:42:48.384Z,6.30
2023-03-27T05:45:15.753Z,6.30
2023-03-27T05:47:46.428Z,6.30
2023-03-27T05:50:14.520Z,6.30
2023-03-27T05:52:41.767Z,6.40
2023-03-27T05:55:08.957Z,6.40
2023-03-27T05:57:39.857Z,6.30
2023-03-27T06:00:13.942Z,6.20
2023-03-27T06:02:43.126Z,6.30
2023-03-27T06:05:12.846Z,6.50
2023-03-27T06:07:42.916Z,6.10
2023-03-27T06:10:13.714Z,5.80
2023-03-27T06:12:41.782Z,6.20
2023-03-27T06:15:09.435Z,6.40
2023-03-27T06:17:38.216Z,6.10
2023-03-27T06:20:12.672Z,6.20
2023-03-27T06:22:44.795Z,6.10
2023-03-27T06:25:12.100Z,6.00
2023-03-27T06:27:41.062Z,6.30
2023-03-27T06:30:09.216Z,5.60
2023-03-27T06:32:36.628Z,5.60
2023-03-27T06:35:03.878Z,6.00
2023-03-27T06:37:36.793Z,6.00
2023-03-27T06:40:09.244Z,5.70
2023-03-27T06:42:36.950Z,5.60
2023-03-27T06:45:05.029Z,5.60
2023-03-27T06:47:36.334Z,5.60
2023-03-27T06:50:07.415Z,5.40
2023-03-27T06:52:34.531Z,5.50
2023-03-27T06:55:03.110Z,5.50
2023-03-27T06:57:30.217Z,5.50
2023-03-27T06:59:58.847Z,5.60
2023-03-27T07:02:27.479Z,5.50
2023-03-27T07:05:04.233Z,6.10
2023-03-27T07:07:32.138Z,5.80
2023-03-27T07:09:59.212Z,5.60
2023-03-27T07:12:26.625Z,5.70
2023-03-27T07:14:53.727Z,5.90
2023-03-27T07:17:20.837Z,6.00
2023-03-27T07:19:47.967Z,6.00
2023-03-27T07:22:15.056Z,5.70
2023-03-27T07:24:42.287Z,6.00
2023-03-27T07:27:09.397Z,5.50
2023-03-27T07:29:37.116Z,5.30
2023-03-27T07:32:08.161Z,5.30
2023-03-27T07:34:36.574Z,5.60
2023-03-27T07:37:03.687Z,5.70
2023-03-27T07:39:30.772Z,5.90
2023-03-27T07:41:57.874Z,5.90
2023-03-27T07:44:24.955Z,6.40
2023-03-27T07:46:52.755Z,6.20
2023-03-27T07:49:19.889Z,6.60
2023-03-27T07:52:06.741Z,6.80
2023-03-27T07:54:33.873Z,7.50
2023-03-27T07:57:01.280Z,7.70
2023-03-27T07:59:28.461Z,7.40
2023-03-27T08:01:55.618Z,7.90
2023-03-27T08:04:23.459Z,7.40
2023-03-27T08:06:51.698Z,7.00
2023-03-27T08:09:18.770Z,6.40
2023-03-27T08:11:45.878Z,6.50
2023-03-27T08:14:13.128Z,6.50
2023-03-27T08:16:40.249Z,6.20
2023-03-27T08:19:07.412Z,6.60
2023-03-27T08:21:34.544Z,5.50
2023-03-27T08:24:03.342Z,5.50
2023-03-27T08:26:31.659Z,5.60
2023-03-27T08:28:59.082Z,5.70
2023-03-27T08:31:28.530Z,5.60
2023-03-27T08:33:56.058Z,5.60
2023-03-27T08:36:23.210Z,5.70
2023-03-27T08:38:50.817Z,5.70
2023-03-27T08:41:38.594Z,6.10
2023-03-27T08:44:06.602Z,6.10
2023-03-27T08:46:38.247Z,6.00
2023-03-27T08:49:09.282Z,6.10
2023-03-27T08:51:47.561Z,6.60
2023-03-27T08:54:14.633Z,6.60
2023-03-27T08:56:41.770Z,6.90
2023-03-27T08:59:10.887Z,7.90
2023-03-27T09:01:41.209Z,8.00
2023-03-27T09:04:12.718Z,8.10
2023-03-27T09:06:54.882Z,7.80
2023-03-27T09:09:37.143Z,7.30
2023-03-27T09:12:13.620Z,7.00
2023-03-27T09:14:41.726Z,7.20
2023-03-27T09:17:32.158Z,6.90
2023-03-27T09:20:07.480Z,6.80
2023-03-27T09:22:40.642Z,6.60
2023-03-27T09:25:15.105Z,7.20
2023-03-27T09:27:42.234Z,7.80
2023-03-27T09:30:14.296Z,8.10
2023-03-27T09:32:42.995Z,7.80
2023-03-27T09:35:16.556Z,8.00
2023-03-27T09:37:43.871Z,7.90
2023-03-27T09:40:25.876Z,8.30
2023-03-27T09:42:53.231Z,8.60
2023-03-27T09:45:20.912Z,8.30
2023-03-27T09:47:58.576Z,8.80
2023-03-27T09:50:27.749Z,9.10
2023-03-27T09:53:08.224Z,9.10
2023-03-27T09:55:35.368Z,8.40
2023-03-27T09:58:16.283Z,8.30
2023-03-27T10:00:43.440Z,7.20
2023-03-27T10:03:15.158Z,7.20
2023-03-27T10:05:44.020Z,7.40
2023-03-27T10:08:29.936Z,7.80
2023-03-27T10:10:57.913Z,8.40
2023-03-27T10:13:26.278Z,8.60
2023-03-27T10:16:00.434Z,8.80
2023-03-27T10:18:28.454Z,8.70
2023-03-27T10:20:57.193Z,8.30
2023-03-27T10:23:40.777Z,8.40
2023-03-27T10:26:20.503Z,8.40
2023-03-27T10:29:02.681Z,9.30
2023-03-27T10:31:54.236Z,9.20
2023-03-27T10:34:34.895Z,9.50
2023-03-27T10:37:14.508Z,9.20
2023-03-27T10:40:04.101Z,9.10
2023-03-27T10:42:46.863Z,8.90
2023-03-27T10:45:24.261Z,8.90
2023-03-27T10:48:06.760Z,8.70
2023-03-27T10:50:45.765Z,8.60
2023-03-27T10:53:17.482Z,8.80
2023-03-27T10:56:02.916Z,8.10
2023-03-27T10:58:34.063Z,8.00
2023-03-27T11:01:06.200Z,8.20
2023-03-27T11:03:34.676Z,9.80
2023-03-27T11:06:03.057Z,9.90
2023-03-27T11:08:40.500Z,11.00
2023-03-27T11:11:08.989Z,11.00
2023-03-27T11:13:38.178Z,12.10
2023-03-27T11:16:21.876Z,11.70
2023-03-27T11:18:53.472Z,12.40
2023-03-27T11:21:26.577Z,11.20
2023-03-27T11:23:57.914Z,9.40
2023-03-27T11:26:32.718Z,9.00
2023-03-27T11:29:02.644Z,9.00
2023-03-27T11:31:38.064Z,10.60
2023-03-27T11:34:11.783Z,11.60
2023-03-27T11:36:41.036Z,11.70
2023-03-27T11:39:15.343Z,12.30
2023-03-27T11:41:43.808Z,12.50
2023-03-27T11:44:10.892Z,12.00
2023-03-27T11:46:47.411Z,11.60
2023-03-27T11:49:33.400Z,11.20
2023-03-27T11:52:08.422Z,11.60
2023-03-27T11:54:54.347Z,11.70
2023-03-27T11:57:22.569Z,11.50
2023-03-27T11:59:53.593Z,11.20
2023-03-27T12:02:27.793Z,10.80
2023-03-27T12:05:07.108Z,10.60
2023-03-27T12:07:40.421Z,10.00
2023-03-27T12:10:25.381Z,10.60
2023-03-27T12:12:58.314Z,10.50
2023-03-27T12:15:25.378Z,10.50
2023-03-27T12:18:15.904Z,10.40
2023-03-27T12:20:53.275Z,9.80
2023-03-27T12:23:39.749Z,10.20
2023-03-27T12:26:13.086Z,10.30
2023-03-27T12:28:58.879Z,10.30
2023-03-27T12:31:29.035Z,10.50
2023-03-27T12:34:00.315Z,10.60
2023-03-27T12:36:27.883Z,10.50
2023-03-27T12:38:55.814Z,10.40
2023-03-27T12:41:24.192Z,10.10
2023-03-27T12:43:55.288Z,10.50
2023-03-27T12:46:26.421Z,10.50
2023-03-27T12:49:22.678Z,10.20
2023-03-27T12:51:57.766Z,11.40
2023-03-27T12:54:29.060Z,12.70
2023-03-27T12:57:05.900Z,12.80
2023-03-27T12:59:35.102Z,12.10
2023-03-27T13:02:05.995Z,10.70
2023-03-27T13:04:33.109Z,10.60
2023-03-27T13:07:14.901Z,10.70
2023-03-27T13:09:47.609Z,10.20
2023-03-27T13:12:26.364Z,9.30
2023-03-27T13:15:12.321Z,9.20
2023-03-27T13:17:42.466Z,9.30
2023-03-27T13:20:12.481Z,9.40
2023-03-27T13:22:42.496Z,9.30
2023-03-27T13:25:25.212Z,9.90
2023-03-27T13:28:28.236Z,10.10
2023-03-27T13:30:56.427Z,10.90
2023-03-27T13:33:29.958Z,11.20
2023-03-27T13:35:57.302Z,11.10
2023-03-27T13:38:43.229Z,11.50
2023-03-27T13:41:29.088Z,11.50
2023-03-27T13:43:56.167Z,11.00
2023-03-27T13:46:24.507Z,11.10
2023-03-27T13:48:54.753Z,11.10
2023-03-27T13:51:28.180Z,10.90
2023-03-27T13:54:16.967Z,9.60
2023-03-27T13:56:53.888Z,8.90
2023-03-27T13:59:35.005Z,8.30
2023-03-27T14:02:54.435Z,8.80
2023-03-27T14:09:08.348Z,9.40
2023-03-27T14:12:07.781Z,10.10
2023-03-27T14:15:10.516Z,10.40
2023-03-27T14:18:08.540Z,10.20
2023-03-27T14:23:58.827Z,10.40
2023-03-27T14:26:29.556Z,10.00
2023-03-27T14:28:58.884Z,10.30
2023-03-27T14:31:26.779Z,10.20
2023-03-27T14:34:03.805Z,9.30
2023-03-27T14:36:33.905Z,9.40
2023-03-27T14:39:02.321Z,10.00
2023-03-27T14:41:29.478Z,9.40
2023-03-27T14:43:56.928Z,10.20
2023-03-27T14:46:24.514Z,9.20
2023-03-27T14:48:56.739Z,8.20
2023-03-27T14:51:34.813Z,8.30
2023-03-27T14:54:03.794Z,8.50
2023-03-27T14:56:49.220Z,9.10
2023-03-27T14:59:20.643Z,8.40
2023-03-27T15:01:49.122Z,8.40
2023-03-27T15:04:16.313Z,8.40
2023-03-27T15:06:43.457Z,8.10
2023-03-27T15:09:15.627Z,7.90
2023-03-27T15:11:46.656Z,8.60
2023-03-27T15:14:15.874Z,8.60
2023-03-27T15:16:42.998Z,8.40
2023-03-27T15:19:19.198Z,8.80
2023-03-27T15:21:59.710Z,8.40
2023-03-27T15:24:38.323Z,9.00
2023-03-27T15:27:05.540Z,9.00
2023-03-27T15:29:42.881Z,9.10
2023-03-27T15:32:11.241Z,9.80
2023-03-27T15:34:46.030Z,10.20
2023-03-27T15:37:25.778Z,10.40
2023-03-27T15:40:02.183Z,9.70
2023-03-27T15:42:55.906Z,10.00
2023-03-27T15:45:24.093Z,9.40
2023-03-27T15:48:01.764Z,9.40
2023-03-27T15:50:28.932Z,9.30
2023-03-27T15:52:58.097Z,9.40
2023-03-27T15:55:31.939Z,8.90
2023-03-27T15:57:59.165Z,8.90
2023-03-27T16:00:27.602Z,8.80
2023-03-27T16:02:56.106Z,8.80
2023-03-27T16:05:23.388Z,8.80
2023-03-27T16:07:50.539Z,8.90
2023-03-27T16:10:28.622Z,8.70
2023-03-27T16:12:57.039Z,8.70
2023-03-27T16:15:37.513Z,8.70
2023-03-27T16:18:18.715Z,9.30
2023-03-27T16:20:45.925Z,9.10
2023-03-27T16:23:13.174Z,8.80
2023-03-27T16:25:41.315Z,7.80
2023-03-27T16:28:08.645Z,7.70
2023-03-27T16:30:36.439Z,7.30
2023-03-27T16:33:03.637Z,7.40
2023-03-27T16:35:33.882Z,7.00
2023-03-27T16:38:01.177Z,7.10
2023-03-27T16:40:28.273Z,7.10
2023-03-27T16:42:55.563Z,7.10
2023-03-27T16:45:22.722Z,7.20
2023-03-27T16:47:53.160Z,7.30
2023-03-27T16:50:21.874Z,7.80
2023-03-27T16:52:49.004Z,7.90
2023-03-27T16:55:16.230Z,8.00
2023-03-27T16:57:43.446Z,8.70
2023-03-27T17:00:11.650Z,8.50
2023-03-27T17:02:38.869Z,8.70
2023-03-27T17:05:06.684Z,8.50
2023-03-27T17:07:33.992Z,8.50
2023-03-27T17:10:02.007Z,8.50
2023-03-27T17:12:29.829Z,8.70
2023-03-27T17:14:56.955Z,8.70
2023-03-27T17:17:24.086Z,10.70
2023-03-27T17:19:51.250Z,10.80
2023-03-27T17:22:18.401Z,10.50
2023-03-27T17:24:56.112Z,9.70
2023-03-27T17:27:24.036Z,9.20
2023-03-27T17:29:51.367Z,9.10
2023-03-27T17:32:18.454Z,8.80
2023-03-27T17:34:45.711Z,8.70
2023-03-27T17:37:12.838Z,8.40
2023-03-27T17:39:41.013Z,8.20
2023-03-27T17:42:08.136Z,8.20
2023-03-27T17:44:35.305Z,8.50
2023-03-27T17:47:02.375Z,8.70
2023-03-27T17:49:31.322Z,8.60
2023-03-27T17:51:58.499Z,8.40
2023-03-27T17:54:25.698Z,8.40
2023-03-27T17:56:52.821Z,8.30
2023-03-27T17:59:20.952Z,8.10
2023-03-27T18:01:48.178Z,7.80
2023-03-27T18:04:15.315Z,7.60
2023-03-27T18:06:42.534Z,7.60
2023-03-27T18:09:09.799Z,7.30
2023-03-27T18:11:36.988Z,7.60
2023-03-27T18:14:04.133Z,7.60
2023-03-27T18:16:31.282Z,7.30
2023-03-27T18:18:58.484Z,7.40
2023-03-27T18:21:25.571Z,7.50
2023-03-27T18:23:53.877Z,7.60
2023-03-27T18:26:21.130Z,7.60
2023-03-27T18:28:48.214Z,7.80
2023-03-27T18:31:17.651Z,7.70
2023-03-27T18:33:44.942Z,7.60
2023-03-27T18:36:12.253Z,7.90
2023-03-27T18:38:40.470Z,8.10
2023-03-27T18:41:07.818Z,8.20
2023-03-27T18:43:34.992Z,8.10
2023-03-27T18:46:04.065Z,8.10
2023-03-27T18:48:31.292Z,8.30
2023-03-27T18:50:59.077Z,8.20
2023-03-27T18:53:26.220Z,8.00
2023-03-27T18:55:53.530Z,7.80
2023-03-27T18:58:21.788Z,7.80
2023-03-27T19:00:48.932Z,7.60
2023-03-27T19:03:17.959Z,7.50
2023-03-27T19:05:45.353Z,7.40
2023-03-27T19:08:12.657Z,7.80
2023-03-27T19:10:40.138Z,7.90
2023-03-27T19:13:07.228Z,7.90
2023-03-27T19:15:34.508Z,8.00
2023-03-27T19:18:01.945Z,7.90
2023-03-27T19:20:29.125Z,7.70
2023-03-27T19:22:56.205Z,7.60
2023-03-27T19:25:23.417Z,7.30
2023-03-27T19:27:50.571Z,7.30
2023-03-27T19:30:18.363Z,7.20
2023-03-27T19:32:45.748Z,7.30
2023-03-27T19:35:13.049Z,7.50
2023-03-27T19:37:40.554Z,7.60
2023-03-27T19:40:09.116Z,7.80
2023-03-27T19:42:36.254Z,7.60
2023-03-27T19:45:03.433Z,7.70
2023-03-27T19:47:30.637Z,7.90
2023-03-27T19:49:57.808Z,7.90
2023-03-27T19:52:24.900Z,8.00
2023-03-27T19:54:53.772Z,7.80
2023-03-27T19:57:21.027Z,7.90
2023-03-27T19:59:48.181Z,7.70
2023-03-27T20:02:15.322Z,7.90
2023-03-27T20:04:42.547Z,7.90
2023-03-27T20:07:10.045Z,8.00
2023-03-27T20:09:37.305Z,7.90
2023-03-27T20:12:04.770Z,7.60
2023-03-27T20:14:31.886Z,7.70
2023-03-27T20:16:59.018Z,7.30
2023-03-27T20:19:26.967Z,7.20
2023-03-27T20:21:55.438Z,7.40
2023-03-27T20:24:22.618Z,7.50
2023-03-27T20:26:53.181Z,7.70
2023-03-27T20:29:21.884Z,7.70
2023-03-27T20:31:49.249Z,7.50
2023-03-27T20:34:19.444Z,7.60
2023-03-27T20:36:47.008Z,7.80
2023-03-27T20:39:14.343Z,7.60
2023-03-27T20:41:41.576Z,7.70
2023-03-27T20:44:14.988Z,6.50
2023-03-27T20:46:46.951Z,6.70
2023-03-27T20:51:55.858Z,7.20
2023-03-27T20:54:23.112Z,7.50
2023-03-27T20:56:50.281Z,7.50
2023-03-27T20:59:17.452Z,7.70
2023-03-27T21:01:44.682Z,7.90
2023-03-27T21:04:12.480Z,7.90
2023-03-27T21:06:40.151Z,7.60
2023-03-27T21:09:07.565Z,7.70
2023-03-27T21:11:35.158Z,7.60
2023-03-27T21:14:02.276Z,7.70
2023-03-27T21:16:29.461Z,7.80
2023-03-27T21:18:56.609Z,7.80
2023-03-27T21:21:23.795Z,7.70
2023-03-27T21:23:53.800Z,6.80
2023-03-27T21:26:20.974Z,6.80
2023-03-27T21:28:50.771Z,7.40
2023-03-27T21:31:18.003Z,7.50
2023-03-27T21:33:45.224Z,7.40
2023-03-27T21:36:14.126Z,7.60
2023-03-27T21:38:41.324Z,7.50
2023-03-27T21:41:09.501Z,7.50
2023-03-27T21:43:36.627Z,7.20
2023-03-27T21:46:04.066Z,7.30
2023-03-27T21:48:31.257Z,7.30
2023-03-27T21:50:59.531Z,7.80
2023-03-27T21:53:26.673Z,7.50
2023-03-27T21:55:53.857Z,7.50
2023-03-27T21:58:21.028Z,7.80
2023-03-27T22:00:48.132Z,7.50
2023-03-27T22:03:15.289Z,7.70
2023-03-27T22:05:42.400Z,8.00
2023-03-27T22:08:09.627Z,7.90
2023-03-27T22:10:36.813Z,7.80
2023-03-27T22:13:03.988Z,7.60
2023-03-27T22:15:31.123Z,7.80
2023-03-27T22:17:58.390Z,8.10
2023-03-27T22:20:26.147Z,8.30
2023-03-27T22:22:53.484Z,7.80
2023-03-27T22:25:20.606Z,7.60
2023-03-27T22:27:48.052Z,8.00
2023-03-27T22:30:15.245Z,8.10
2023-03-27T22:32:42.527Z,8.00
2023-03-27T22:35:10.036Z,7.70
2023-03-27T22:37:37.842Z,7.40
2023-03-27T22:40:08.156Z,7.40
2023-03-27T22:42:35.241Z,7.20
2023-03-27T22:45:03.067Z,7.30
2023-03-27T22:47:30.588Z,7.30
2023-03-27T22:49:57.801Z,7.10
2023-03-27T22:52:24.875Z,7.00
2023-03-27T22:54:52.002Z,7.10
2023-03-27T22:57:19.343Z,7.20
2023-03-27T22:59:46.702Z,7.10
2023-03-27T23:02:13.837Z,7.10
2023-03-27T23:04:41.189Z,7.10
2023-03-27T23:07:08.271Z,7.10
2023-03-27T23:09:35.420Z,7.00
2023-03-27T23:12:02.490Z,7.10
2023-03-27T23:14:29.568Z,7.20
2023-03-27T23:16:56.759Z,7.10
2023-03-27T23:19:23.923Z,6.80
2023-03-27T23:21:51.025Z,7.00
2023-03-27T23:24:18.305Z,6.90
2023-03-27T23:26:45.622Z,6.70
2023-03-27T23:29:12.759Z,6.30
2023-03-27T23:31:39.898Z,6.20
2023-03-27T23:34:07.024Z,6.10
2023-03-27T23:36:34.106Z,6.00
2023-03-27T23:39:01.247Z,6.20
2023-03-27T23:41:29.367Z,6.20
2023-03-27T23:43:56.473Z,6.20
2023-03-27T23:46:23.633Z,6.20
2023-03-27T23:48:50.892Z,5.90
2023-03-27T23:51:18.012Z,6.00
2023-03-27T23:53:45.317Z,6.00
2023-03-27T23:56:12.656Z,6.10
2023-03-27T23:58:39.773Z,5.70
